Time;durP1;ratioP1;P1;durP2;ratioP2;P2;SDS_P1;SDS_P2;PMS_P1;PMS_P2;Temp;Humidity;BMP_temperature;BMP_pressure;BME280_temperature;BME280_humidity;BME280_pressure;Samples;Min_cycle;Max_cycle;Signal;HPM_P1;HPM_P2
2023/08/02 00:01:31;;;;;;;9.60;2.50;;;14.70;99.90;;;;;;4824954;29;20204;-84
2023/08/02 00:03:57;;;;;;;4.50;2.57;;;14.70;99.90;;;;;;4808317;29;20197;-83
2023/08/02 00:06:22;;;;;;;3.50;2.23;;;14.70;99.90;;;;;;4825211;29;20241;-83
2023/08/02 00:08:48;;;;;;;3.67;2.13;;;14.70;99.90;;;;;;4808323;29;20273;-82
2023/08/02 00:11:17;;;;;;;7.40;2.40;;;14.70;99.90;;;;;;4824652;29;20227;-83
2023/08/02 00:13:43;;;;;;;5.90;2.23;;;14.70;99.90;;;;;;4825173;29;20234;-82
2023/08/02 00:16:10;;;;;;;4.40;2.73;;;14.70;99.90;;;;;;4824691;29;20518;-83
2023/08/02 00:18:35;;;;;;;8.43;2.87;;;14.70;99.90;;;;;;4825033;29;20539;-83
2023/08/02 00:21:01;;;;;;;2.40;2.17;;;14.60;99.90;;;;;;4808782;29;20476;-83
2023/08/02 00:23:26;;;;;;;6.43;2.83;;;14.60;99.90;;;;;;4824521;29;20190;-82
2023/08/02 00:25:52;;;;;;;8.17;2.20;;;14.70;99.90;;;;;;4825715;29;20281;-83
2023/08/02 00:28:17;;;;;;;4.50;2.60;;;14.70;99.90;;;;;;4827700;29;20640;-83
2023/08/02 00:30:47;;;;;;;4.50;2.40;;;14.70;99.90;;;;;;4828624;29;20545;-83
2023/08/02 00:33:13;;;;;;;5.20;2.67;;;14.70;99.90;;;;;;4827901;29;20210;-83
2023/08/02 00:35:45;;;;;;;3.83;2.50;;;14.70;99.90;;;;;;4828007;29;20847;-83
2023/08/02 00:38:11;;;;;;;5.17;2.70;;;14.70;99.90;;;;;;4827803;29;20411;-83
2023/08/02 00:40:37;;;;;;;4.33;2.57;;;14.70;99.90;;;;;;4828055;29;20583;-82
2023/08/02 00:43:03;;;;;;;4.50;2.50;;;14.70;99.90;;;;;;4811673;29;20985;-83
2023/08/02 00:45:29;;;;;;;6.50;2.83;;;14.70;99.90;;;;;;4827856;29;20426;-83
2023/08/02 00:47:57;;;;;;;3.33;2.27;;;14.70;99.90;;;;;;4827833;29;20254;-83
2023/08/02 00:50:24;;;;;;;3.50;2.20;;;14.60;99.90;;;;;;4827717;29;20453;-83
2023/08/02 00:52:50;;;;;;;4.80;2.73;;;14.60;99.90;;;;;;4827599;29;20833;-83
2023/08/02 00:55:16;;;;;;;5.40;2.87;;;14.50;99.90;;;;;;4827477;29;20418;-82
2023/08/02 00:57:41;;;;;;;8.73;2.40;;;14.50;99.90;;;;;;4827595;29;20575;-83
2023/08/02 01:00:07;;;;;;;3.50;2.47;;;14.50;99.90;;;;;;4827100;29;20198;-83
2023/08/02 01:02:33;;;;;;;5.50;2.70;;;14.50;99.90;;;;;;4811157;29;20785;-83
2023/08/02 01:04:59;;;;;;;4.23;2.10;;;14.40;99.90;;;;;;4827205;29;20561;-87
2023/08/02 01:07:37;;;;;;;3.60;2.10;;;14.40;99.90;;;;;;4827383;29;20543;-83
2023/08/02 01:10:08;;;;;;;6.60;3.10;;;14.50;99.90;;;;;;4827127;29;20837;-83
2023/08/02 01:12:37;;;;;;;6.57;3.10;;;14.50;99.90;;;;;;4827403;29;20427;-83
2023/08/02 01:15:04;;;;;;;5.73;2.50;;;14.50;99.90;;;;;;4827515;29;20434;-83
2023/08/02 01:17:31;;;;;;;7.20;2.43;;;14.50;99.90;;;;;;4827101;29;20416;-83
2023/08/02 01:20:03;;;;;;;3.00;2.10;;;14.60;99.90;;;;;;4827203;29;20462;-82
2023/08/02 01:22:29;;;;;;;8.30;2.20;;;14.60;99.90;;;;;;4827140;29;20409;-83
2023/08/02 01:24:56;;;;;;;4.87;2.60;;;14.60;99.90;;;;;;4826949;29;20419;-83
2023/08/02 01:27:25;;;;;;;3.57;2.17;;;14.60;99.90;;;;;;4827333;29;20770;-82
2023/08/02 01:29:52;;;;;;;3.73;1.90;;;14.70;99.90;;;;;;4826950;29;20509;-82
2023/08/02 01:32:21;;;;;;;4.30;2.60;;;14.70;99.90;;;;;;4826810;29;20423;-83
2023/08/02 01:34:47;;;;;;;5.13;2.30;;;14.70;99.90;;;;;;4826969;29;21019;-83
2023/08/02 01:37:14;;;;;;;4.00;2.60;;;14.70;99.90;;;;;;4826237;29;20419;-83
2023/08/02 01:39:39;;;;;;;5.20;2.50;;;14.80;99.90;;;;;;4826754;29;20398;-83
2023/08/02 01:42:05;;;;;;;5.80;3.00;;;14.80;99.90;;;;;;4810357;29;20771;-83
2023/08/02 01:44:30;;;;;;;4.13;2.90;;;14.80;99.90;;;;;;4826891;29;20607;-83
2023/08/02 01:46:56;;;;;;;5.60;2.30;;;14.80;99.90;;;;;;4826928;29;20186;-83
2023/08/02 01:49:21;;;;;;;4.73;2.63;;;14.90;99.90;;;;;;4826383;29;20213;-83
2023/08/02 01:51:47;;;;;;;3.10;2.00;;;14.90;99.90;;;;;;4826982;29;20221;-83
2023/08/02 01:54:13;;;;;;;7.70;2.67;;;14.90;99.90;;;;;;4810255;29;20653;-83
2023/08/02 01:56:39;;;;;;;14.57;2.70;;;15.00;99.90;;;;;;4827083;29;20193;-82
2023/08/02 01:59:04;;;;;;;5.83;2.40;;;15.00;99.90;;;;;;4826663;29;20782;-84
2023/08/02 02:01:30;;;;;;;2.93;2.33;;;15.00;99.90;;;;;;4826669;29;20273;-82
2023/08/02 02:03:55;;;;;;;4.50;3.23;;;15.00;99.90;;;;;;4827167;29;20213;-83
2023/08/02 02:06:21;;;;;;;4.23;2.07;;;15.00;99.90;;;;;;4826055;29;20244;-82
2023/08/02 02:08:47;;;;;;;7.43;3.00;;;15.10;99.90;;;;;;4826373;29;20248;-83
2023/08/02 02:11:12;;;;;;;8.27;3.40;;;15.10;99.90;;;;;;4810070;29;20272;-83
2023/08/02 02:13:38;;;;;;;7.27;2.70;;;15.10;99.90;;;;;;4826450;29;20193;-82
2023/08/02 02:16:04;;;;;;;4.63;2.40;;;15.20;99.90;;;;;;4826001;29;20556;-84
2023/08/02 02:18:29;;;;;;;5.57;2.43;;;15.20;99.90;;;;;;4826442;29;20610;-83
2023/08/02 02:20:55;;;;;;;4.33;2.13;;;15.20;99.90;;;;;;4826702;29;20244;-83
2023/08/02 02:23:20;;;;;;;5.47;2.27;;;15.20;99.90;;;;;;4825979;29;20208;-83
2023/08/02 02:25:46;;;;;;;4.07;2.47;;;15.30;99.90;;;;;;4826218;29;20276;-82
2023/08/02 02:28:12;;;;;;;2.33;1.80;;;15.30;99.90;;;;;;4826255;29;20186;-83
2023/08/02 02:30:37;;;;;;;4.00;1.80;;;15.30;99.90;;;;;;4810142;29;20206;-83
2023/08/02 02:33:04;;;;;;;5.00;2.00;;;15.30;99.90;;;;;;4826005;29;20193;-82
2023/08/02 02:35:30;;;;;;;3.63;2.20;;;15.30;99.90;;;;;;4826172;29;20480;-83
2023/08/02 02:37:55;;;;;;;2.90;1.50;;;15.40;99.90;;;;;;4826030;29;20488;-83
2023/08/02 02:40:21;;;;;;;6.93;2.57;;;15.40;99.90;;;;;;4826053;29;20216;-83
2023/08/02 02:42:47;;;;;;;3.43;1.50;;;15.40;99.90;;;;;;4826179;29;20190;-83
2023/08/02 02:45:13;;;;;;;4.00;2.40;;;15.40;99.90;;;;;;4809142;29;20193;-83
2023/08/02 02:47:39;;;;;;;2.90;1.70;;;15.40;99.90;;;;;;4826073;29;20198;-83
2023/08/02 02:50:05;;;;;;;3.03;1.67;;;15.40;99.90;;;;;;4825573;29;20452;-83
2023/08/02 02:52:32;;;;;;;3.40;1.77;;;15.40;99.90;;;;;;4825844;29;20277;-83
2023/08/02 02:54:58;;;;;;;2.10;1.13;;;15.40;99.90;;;;;;4825854;29;20465;-82
2023/08/02 02:57:23;;;;;;;2.57;1.27;;;15.40;99.90;;;;;;4809241;29;20838;-82
2023/08/02 02:59:49;;;;;;;4.10;1.83;;;15.30;99.90;;;;;;4825536;29;20217;-83
2023/08/02 03:02:15;;;;;;;3.03;1.40;;;15.40;99.90;;;;;;4825727;29;20185;-83
2023/08/02 03:04:40;;;;;;;2.63;1.73;;;15.50;99.90;;;;;;4825632;29;20241;-83
2023/08/02 03:07:06;;;;;;;1.83;1.63;;;15.40;99.90;;;;;;4809091;29;20197;-84
2023/08/02 03:09:31;;;;;;;3.40;1.67;;;15.40;99.90;;;;;;4825841;29;20317;-83
2023/08/02 03:11:57;;;;;;;2.90;1.50;;;15.50;99.90;;;;;;4825578;29;20213;-83
2023/08/02 03:14:22;;;;;;;2.70;1.93;;;15.40;99.90;;;;;;4825207;29;20186;-83
2023/08/02 03:16:48;;;;;;;2.80;1.67;;;15.40;99.90;;;;;;4825526;29;20185;-83
2023/08/02 03:19:13;;;;;;;3.33;1.90;;;15.40;99.90;;;;;;4825339;29;20682;-83
2023/08/02 03:21:39;;;;;;;5.83;1.87;;;15.40;99.90;;;;;;4825489;29;20269;-83
2023/08/02 03:24:05;;;;;;;3.87;1.50;;;15.40;99.90;;;;;;4825197;29;20601;-83
2023/08/02 03:26:31;;;;;;;2.90;1.63;;;15.40;99.90;;;;;;4825128;29;20492;-83
2023/08/02 03:28:58;;;;;;;3.20;1.77;;;15.40;99.90;;;;;;4825098;29;20522;-83
2023/08/02 03:31:23;;;;;;;1.87;1.70;;;15.30;99.90;;;;;;4825065;29;20450;-83
2023/08/02 03:33:49;;;;;;;3.90;2.10;;;15.40;99.90;;;;;;4825106;29;20216;-83
2023/08/02 03:36:16;;;;;;;6.20;2.20;;;15.40;99.90;;;;;;4824776;29;20185;-84
2023/08/02 03:38:42;;;;;;;2.93;2.03;;;15.40;99.90;;;;;;4825365;29;20276;-83
2023/08/02 03:41:08;;;;;;;1.70;1.60;;;15.30;99.90;;;;;;4825368;29;20485;-83
2023/08/02 03:43:33;;;;;;;2.20;2.00;;;15.30;99.90;;;;;;4825388;29;20415;-83
2023/08/02 03:45:59;;;;;;;3.13;2.10;;;15.30;99.90;;;;;;4825255;29;20909;-83
2023/08/02 03:48:28;;;;;;;2.30;1.63;;;15.30;99.90;;;;;;4824910;29;20221;-83
2023/08/02 03:50:57;;;;;;;3.20;1.70;;;15.30;99.90;;;;;;4825073;29;20192;-83
2023/08/02 03:53:23;;;;;;;3.13;2.23;;;15.30;99.90;;;;;;4825095;29;20486;-83
2023/08/02 03:55:49;;;;;;;3.23;2.07;;;15.30;99.90;;;;;;4824909;29;20427;-83
2023/08/02 03:58:14;;;;;;;4.47;2.57;;;15.30;99.90;;;;;;4824712;29;20438;-84
2023/08/02 04:00:40;;;;;;;6.37;2.70;;;15.30;99.90;;;;;;4825522;29;20276;-83
2023/08/02 04:03:06;;;;;;;2.90;2.33;;;15.30;99.90;;;;;;4828665;29;20659;-84
2023/08/02 04:05:31;;;;;;;5.17;2.70;;;15.30;99.90;;;;;;4828264;29;20237;-83
2023/08/02 04:07:57;;;;;;;3.60;2.50;;;15.30;99.90;;;;;;4828300;29;20254;-83
2023/08/02 04:10:23;;;;;;;3.40;2.73;;;15.30;99.90;;;;;;4828148;29;20238;-83
2023/08/02 04:12:52;;;;;;;5.63;3.50;;;15.30;99.90;;;;;;4812541;29;20323;-83
2023/08/02 04:15:18;;;;;;;4.57;2.40;;;15.30;99.90;;;;;;4828001;29;20972;-84
2023/08/02 04:17:43;;;;;;;3.80;2.90;;;15.30;99.90;;;;;;4828400;29;20423;-83
2023/08/02 04:20:09;;;;;;;4.77;2.63;;;15.30;99.90;;;;;;4828252;29;20190;-83
2023/08/02 04:22:35;;;;;;;6.83;3.33;;;15.30;99.90;;;;;;4827954;29;20190;-83
2023/08/02 04:25:03;;;;;;;6.40;2.90;;;15.30;99.90;;;;;;4828159;29;20466;-83
2023/08/02 04:27:29;;;;;;;4.53;3.47;;;15.30;99.90;;;;;;4827861;29;20518;-83
2023/08/02 04:29:54;;;;;;;4.83;3.33;;;15.30;99.90;;;;;;4811714;29;20574;-83
2023/08/02 04:32:20;;;;;;;5.47;3.87;;;15.30;99.90;;;;;;4811464;29;20431;-84
2023/08/02 04:34:45;;;;;;;8.30;3.20;;;15.30;99.90;;;;;;4827585;29;20193;-84
2023/08/02 04:37:11;;;;;;;5.67;3.30;;;15.30;99.90;;;;;;4827887;29;20203;-84
2023/08/02 04:39:37;;;;;;;5.77;2.90;;;15.30;99.90;;;;;;4811464;29;20235;-85
2023/08/02 04:42:03;;;;;;;13.57;4.33;;;15.40;99.90;;;;;;4827613;29;20189;-83
2023/08/02 04:44:29;;;;;;;4.50;3.73;;;15.30;99.90;;;;;;4827565;29;20182;-86
2023/08/02 04:46:54;;;;;;;10.60;4.37;;;15.40;99.90;;;;;;4827654;29;20419;-85
2023/08/02 04:49:20;;;;;;;4.60;3.70;;;15.30;99.90;;;;;;4827102;29;20556;-85
2023/08/02 04:51:46;;;;;;;6.43;3.67;;;15.30;99.90;;;;;;4827633;29;20221;-85
2023/08/02 04:54:11;;;;;;;4.33;3.90;;;15.40;99.90;;;;;;4811695;29;20265;-84
2023/08/02 04:56:38;;;;;;;10.77;4.67;;;15.30;99.90;;;;;;4827316;29;20189;-85
2023/08/02 04:59:05;;;;;;;5.87;3.77;;;15.40;99.90;;;;;;4827462;29;20189;-84
2023/08/02 05:01:31;;;;;;;5.50;3.80;;;15.40;99.90;;;;;;4811396;29;20419;-85
2023/08/02 05:03:57;;;;;;;6.93;4.93;;;15.40;99.90;;;;;;4796059;29;20559;-84
2023/08/02 05:06:22;;;;;;;5.53;4.63;;;15.40;99.90;;;;;;4827233;29;20535;-84
2023/08/02 05:08:48;;;;;;;10.30;4.83;;;15.40;99.90;;;;;;4827483;29;20232;-84
2023/08/02 05:11:14;;;;;;;5.73;4.07;;;15.50;99.90;;;;;;4810992;29;20266;-83
2023/08/02 05:13:39;;;;;;;5.43;4.60;;;15.50;99.90;;;;;;4827137;29;20562;-85
2023/08/02 05:16:10;;;;;;;7.10;5.40;;;15.50;99.90;;;;;;4810794;29;20193;-85
2023/08/02 05:18:36;;;;;;;11.00;5.40;;;15.50;99.90;;;;;;4827141;29;20635;-84
2023/08/02 05:21:10;;;;;;;5.97;4.90;;;15.60;99.90;;;;;;4827339;29;20563;-84
2023/08/02 05:23:36;;;;;;;7.50;4.90;;;15.60;99.90;;;;;;4826756;29;20185;-84
2023/08/02 05:26:05;;;;;;;7.30;4.43;;;15.60;99.90;;;;;;4826977;29;20435;-84
2023/08/02 05:28:31;;;;;;;8.47;4.83;;;15.60;99.90;;;;;;4826816;29;20295;-84
2023/08/02 05:30:57;;;;;;;8.10;4.80;;;15.60;99.90;;;;;;4826565;29;20519;-84
2023/08/02 05:33:22;;;;;;;7.07;4.77;;;15.60;99.90;;;;;;4826549;29;20276;-84
2023/08/02 05:35:48;;;;;;;8.40;4.87;;;15.70;99.90;;;;;;4826884;29;20205;-84
2023/08/02 05:38:13;;;;;;;7.60;5.10;;;15.70;99.90;;;;;;4826820;29;20598;-84
2023/08/02 05:40:39;;;;;;;11.37;5.23;;;15.70;99.90;;;;;;4810253;29;20256;-84
2023/08/02 05:43:06;;;;;;;11.50;5.60;;;15.80;99.90;;;;;;4810899;29;20194;-83
2023/08/02 05:45:31;;;;;;;6.63;5.03;;;15.80;99.90;;;;;;4826119;29;20193;-84
2023/08/02 05:47:58;;;;;;;6.40;4.63;;;15.80;99.90;;;;;;4795576;29;20430;-84
2023/08/02 05:50:24;;;;;;;6.70;4.80;;;15.90;99.90;;;;;;4810205;29;20221;-84
2023/08/02 05:52:49;;;;;;;8.30;5.10;;;15.80;99.90;;;;;;4826556;29;20420;-86
2023/08/02 05:55:15;;;;;;;8.07;5.20;;;15.80;99.90;;;;;;4810201;29;20193;-86
2023/08/02 05:57:41;;;;;;;6.70;5.33;;;15.80;99.90;;;;;;4826237;29;20612;-86
2023/08/02 06:00:08;;;;;;;7.17;5.20;;;15.80;99.90;;;;;;4820754;29;20442;-86
2023/08/02 06:02:34;;;;;;;7.57;4.63;;;15.80;99.90;;;;;;4844363;29;20193;-87
2023/08/02 06:04:59;;;;;;;7.00;6.07;;;15.80;99.90;;;;;;4844480;29;20482;-86
2023/08/02 06:07:25;;;;;;;8.83;5.50;;;15.80;99.90;;;;;;4844255;29;20436;-86
2023/08/02 06:09:50;;;;;;;9.00;5.47;;;15.80;99.90;;;;;;4828391;29;20716;-86
2023/08/02 06:12:16;;;;;;;12.03;6.17;;;15.80;99.90;;;;;;4828161;29;20185;-86
2023/08/02 06:14:42;;;;;;;9.13;4.97;;;15.80;99.90;;;;;;4827204;29;20233;-86
2023/08/02 06:17:07;;;;;;;6.60;5.50;;;15.80;99.90;;;;;;4828209;29;20217;-86
2023/08/02 06:19:33;;;;;;;16.20;5.73;;;15.80;99.90;;;;;;4844492;29;20208;-87
2023/08/02 06:21:58;;;;;;;7.33;5.60;;;15.80;99.90;;;;;;4844664;29;20195;-85
2023/08/02 06:24:24;;;;;;;6.10;4.90;;;15.80;99.90;;;;;;4843439;29;20600;-87
2023/08/02 06:26:50;;;;;;;11.00;5.03;;;15.80;99.90;;;;;;4844570;29;20189;-86
2023/08/02 06:29:15;;;;;;;6.83;4.50;;;15.80;99.90;;;;;;4844113;29;20582;-86
2023/08/02 06:31:41;;;;;;;6.57;4.53;;;15.80;99.90;;;;;;4827963;29;20275;-86
2023/08/02 06:34:06;;;;;;;7.23;4.70;;;15.70;99.90;;;;;;4827877;29;20189;-86
2023/08/02 06:36:32;;;;;;;4.10;3.70;;;15.70;99.90;;;;;;4844176;29;20277;-88
2023/08/02 06:38:58;;;;;;;6.87;4.93;;;15.70;99.90;;;;;;4844417;29;20193;-85
2023/08/02 06:41:24;;;;;;;7.40;5.50;;;15.70;99.90;;;;;;4843981;29;20403;-86
2023/08/02 06:43:50;;;;;;;10.33;5.50;;;15.80;99.90;;;;;;4843855;29;20191;-86
2023/08/02 06:46:16;;;;;;;6.53;4.63;;;15.80;99.90;;;;;;4844045;29;20280;-86
2023/08/02 06:48:41;;;;;;;6.47;5.20;;;15.90;99.90;;;;;;4844117;29;20591;-85
2023/08/02 06:51:11;;;;;;;7.60;5.00;;;15.90;99.90;;;;;;4844138;29;20551;-84
2023/08/02 06:53:37;;;;;;;6.60;4.30;;;16.00;99.90;;;;;;4843881;29;20192;-85
2023/08/02 06:56:16;;;;;;;9.33;4.50;;;16.00;99.90;;;;;;4843818;29;21005;-85
2023/08/02 06:58:42;;;;;;;6.93;4.70;;;16.00;99.90;;;;;;4843861;29;20193;-87
2023/08/02 07:01:15;;;;;;;6.17;4.47;;;16.10;99.90;;;;;;4843820;29;20510;-85
2023/08/02 07:03:41;;;;;;;7.00;4.73;;;16.10;99.90;;;;;;4843725;29;20430;-87
2023/08/02 07:06:09;;;;;;;5.10;4.60;;;16.20;99.90;;;;;;4843569;29;20472;-86
2023/08/02 07:08:34;;;;;;;5.07;4.20;;;16.30;99.90;;;;;;4843356;29;20884;-85
2023/08/02 07:11:00;;;;;;;7.20;3.70;;;16.50;99.90;;;;;;4843748;29;20426;-86
2023/08/02 07:13:25;;;;;;;8.57;4.53;;;16.50;99.90;;;;;;4843619;29;20216;-85
2023/08/02 07:15:51;;;;;;;3.67;3.33;;;16.60;99.90;;;;;;4843514;29;20276;-84
2023/08/02 07:18:16;;;;;;;7.73;3.73;;;16.70;99.90;;;;;;4843849;29;20193;-85
2023/08/02 07:20:42;;;;;;;3.97;3.27;;;16.70;99.90;;;;;;4843407;29;20185;-89
2023/08/02 07:23:07;;;;;;;3.80;3.20;;;16.80;99.90;;;;;;4827335;29;20245;-86
2023/08/02 07:25:34;;;;;;;3.70;3.17;;;16.80;99.90;;;;;;4843193;29;20535;-86
2023/08/02 07:28:00;;;;;;;6.60;3.37;;;16.90;99.90;;;;;;4843535;29;20245;-86
2023/08/02 07:30:26;;;;;;;5.50;3.03;;;17.10;99.90;;;;;;4843277;29;20448;-86
2023/08/02 07:32:51;;;;;;;3.57;3.13;;;17.20;99.90;;;;;;4843852;29;20188;-87
2023/08/02 07:35:17;;;;;;;4.73;3.20;;;17.20;99.90;;;;;;4842921;29;20438;-87
2023/08/02 07:37:43;;;;;;;4.40;3.20;;;17.20;99.90;;;;;;4843749;29;20261;-87
2023/08/02 07:40:09;;;;;;;5.37;2.60;;;17.40;99.90;;;;;;4844047;29;20189;-86
2023/08/02 07:42:34;;;;;;;5.87;2.47;;;17.60;99.90;;;;;;4843549;29;20180;-87
2023/08/02 07:45:06;;;;;;;3.23;1.97;;;17.60;99.90;;;;;;4843697;29;20932;-87
2023/08/02 07:47:32;;;;;;;2.47;1.63;;;17.70;99.90;;;;;;4843462;29;20185;-86
2023/08/02 07:49:57;;;;;;;3.10;1.70;;;17.90;99.90;;;;;;4843297;29;20568;-86
2023/08/02 07:52:23;;;;;;;4.40;1.67;;;18.00;99.90;;;;;;4827334;29;20483;-90
2023/08/02 07:54:51;;;;;;;1.87;1.57;;;18.00;99.90;;;;;;4843750;29;20591;-87
2023/08/02 07:57:16;;;;;;;3.20;1.80;;;18.00;99.90;;;;;;4843888;29;20185;-87
2023/08/02 07:59:42;;;;;;;2.80;1.30;;;18.10;99.90;;;;;;4843230;29;20960;-87
2023/08/02 08:02:07;;;;;;;3.03;1.03;;;18.20;99.90;;;;;;4843782;29;20189;-89
2023/08/02 08:04:33;;;;;;;1.10;1.00;;;18.50;99.90;;;;;;4843393;29;20263;-88
2023/08/02 08:06:58;;;;;;;1.47;1.20;;;18.60;99.90;;;;;;4827707;29;20189;-89
2023/08/02 08:09:24;;;;;;;1.50;1.20;;;18.70;99.90;;;;;;4843194;29;20596;-89
2023/08/02 08:11:50;;;;;;;1.77;1.00;;;18.70;99.90;;;;;;4843649;29;20610;-88
2023/08/02 08:14:15;;;;;;;1.00;0.90;;;18.90;99.90;;;;;;4843587;29;20284;-87
2023/08/02 08:16:41;;;;;;;1.13;0.63;;;18.90;99.90;;;;;;4843554;29;20401;-89
2023/08/02 08:19:06;;;;;;;0.80;0.70;;;18.80;99.90;;;;;;4843487;29;20216;-87
2023/08/02 08:21:32;;;;;;;1.00;0.63;;;18.90;99.90;;;;;;4844303;29;20189;-87
2023/08/02 08:23:57;;;;;;;2.90;0.93;;;18.70;99.90;;;;;;4843232;29;20288;-90
2023/08/02 08:26:23;;;;;;;1.67;0.50;;;18.70;99.90;;;;;;4845016;29;20185;-88
2023/08/02 08:28:49;;;;;;;0.87;0.60;;;18.70;99.90;;;;;;4842924;29;20281;-86
2023/08/02 08:31:15;;;;;;;0.80;0.60;;;18.60;99.90;;;;;;4842996;29;20548;-88
2023/08/02 08:33:40;;;;;;;0.77;0.60;;;18.60;99.90;;;;;;4843052;29;20595;-88
2023/08/02 08:36:13;;;;;;;0.70;0.50;;;18.60;99.90;;;;;;4843220;29;20649;-87
2023/08/02 08:38:39;;;;;;;0.67;0.50;;;18.70;99.90;;;;;;4843279;29;20204;-88
2023/08/02 08:41:04;;;;;;;1.07;0.53;;;18.60;99.90;;;;;;4826282;29;20787;-88
2023/08/02 08:43:32;;;;;;;0.67;0.57;;;18.50;99.90;;;;;;4842572;29;20189;-87
2023/08/02 08:45:58;;;;;;;0.97;0.50;;;18.50;99.90;;;;;;4843997;29;20197;-86
2023/08/02 08:48:25;;;;;;;1.00;0.60;;;18.50;99.90;;;;;;4847097;29;20545;-86
2023/08/02 08:50:53;;;;;;;0.60;0.40;;;18.50;99.90;;;;;;4847004;29;20726;-88
2023/08/02 08:53:28;;;;;;;1.10;0.60;;;18.60;99.90;;;;;;4846362;29;20907;-86
2023/08/02 08:55:54;;;;;;;0.70;0.50;;;18.60;99.90;;;;;;4847505;29;20500;-86
2023/08/02 08:58:20;;;;;;;0.60;0.50;;;18.60;99.90;;;;;;4846391;29;20433;-86
2023/08/02 09:00:46;;;;;;;0.70;0.50;;;18.60;99.90;;;;;;4846185;29;20401;-89
2023/08/02 09:03:13;;;;;;;0.70;0.50;;;18.50;99.90;;;;;;4846423;29;20189;-86
2023/08/02 09:05:40;;;;;;;0.60;0.47;;;18.40;99.90;;;;;;4829039;29;20477;-87
2023/08/02 09:08:05;;;;;;;0.70;0.50;;;18.40;99.90;;;;;;4846412;29;20589;-87
2023/08/02 09:10:32;;;;;;;1.13;0.50;;;18.40;99.90;;;;;;4845682;29;20465;-85
2023/08/02 09:12:58;;;;;;;1.20;0.53;;;18.40;99.90;;;;;;4846029;29;20596;-86
2023/08/02 09:15:24;;;;;;;0.60;0.50;;;18.50;99.90;;;;;;4845777;29;20418;-86
2023/08/02 09:17:54;;;;;;;0.70;0.50;;;18.40;99.90;;;;;;4845383;29;20188;-86
2023/08/02 09:20:21;;;;;;;0.70;0.50;;;18.50;99.90;;;;;;4845761;29;20805;-86
2023/08/02 09:22:47;;;;;;;0.93;0.60;;;18.60;99.90;;;;;;4845411;29;20948;-86
2023/08/02 09:25:25;;;;;;;0.70;0.53;;;18.60;99.90;;;;;;4845503;29;20487;-86
2023/08/02 09:27:52;;;;;;;0.70;0.50;;;18.70;99.90;;;;;;4845088;29;20400;-85
2023/08/02 09:30:29;;;;;;;0.90;0.60;;;18.90;99.90;;;;;;4845327;29;20592;-85
2023/08/02 09:33:05;;;;;;;2.27;0.50;;;19.00;99.90;;;;;;4845722;29;20771;-85
2023/08/02 09:35:48;;;;;;;2.30;0.60;;;19.00;99.90;;;;;;4845133;29;20936;-84
2023/08/02 09:38:16;;;;;;;1.10;0.60;;;19.20;99.90;;;;;;4845461;29;20422;-86
2023/08/02 09:40:42;;;;;;;0.60;0.40;;;19.40;99.90;;;;;;4845071;29;20397;-85
2023/08/02 09:43:11;;;;;;;3.17;0.50;;;19.60;99.90;;;;;;4846031;29;20430;-86
2023/08/02 09:45:37;;;;;;;1.03;0.50;;;19.70;99.90;;;;;;4845132;29;20513;-83
2023/08/02 09:48:03;;;;;;;1.20;0.53;;;19.90;99.90;;;;;;4846420;29;20445;-85
2023/08/02 09:50:29;;;;;;;0.77;0.50;;;19.90;99.90;;;;;;4848168;29;20594;-86
2023/08/02 09:52:55;;;;;;;0.80;0.50;;;20.00;99.90;;;;;;4844707;29;20594;-88
2023/08/02 09:55:20;;;;;;;1.33;0.50;;;20.00;99.90;;;;;;4851949;29;20400;-86
2023/08/02 09:57:47;;;;;;;1.27;0.70;;;20.00;99.90;;;;;;4844484;29;20181;-85
2023/08/02 10:00:14;;;;;;;0.97;0.50;;;20.00;99.90;;;;;;4844388;29;20185;-86
2023/08/02 10:02:40;;;;;;;1.43;0.50;;;20.00;99.90;;;;;;4844697;29;20425;-87
2023/08/02 10:05:09;;;;;;;0.97;0.50;;;19.90;99.90;;;;;;4845097;29;20865;-85
2023/08/02 10:07:53;;;;;;;0.60;0.50;;;19.80;99.90;;;;;;4844615;29;20196;-86
2023/08/02 10:10:26;;;;;;;1.47;0.50;;;19.90;99.90;;;;;;4845020;29;20455;-86
2023/08/02 10:12:55;;;;;;;0.60;0.50;;;20.00;99.90;;;;;;4844774;29;20789;-86
2023/08/02 10:15:22;;;;;;;1.27;0.63;;;20.30;99.90;;;;;;4844821;29;20485;-86
2023/08/02 10:17:48;;;;;;;0.90;0.40;;;20.60;99.90;;;;;;4828126;29;20412;-87
2023/08/02 10:20:15;;;;;;;1.27;0.53;;;20.90;99.90;;;;;;4844638;29;20401;-88
2023/08/02 10:22:41;;;;;;;0.90;0.50;;;21.30;99.90;;;;;;4843969;29;20188;-88
2023/08/02 10:25:07;;;;;;;0.70;0.50;;;21.40;99.90;;;;;;4844937;29;20430;-88
2023/08/02 10:27:35;;;;;;;0.70;0.50;;;21.50;99.90;;;;;;4844232;29;20440;-86
2023/08/02 10:30:04;;;;;;;0.70;0.60;;;21.60;99.90;;;;;;4844171;29;20452;-86
2023/08/02 10:32:29;;;;;;;1.30;0.60;;;21.70;99.90;;;;;;4843954;29;20509;-86
2023/08/02 10:34:56;;;;;;;1.13;0.50;;;21.50;99.90;;;;;;4844272;29;20540;-86
2023/08/02 10:37:22;;;;;;;0.80;0.50;;;21.60;99.90;;;;;;4827874;29;20256;-86
2023/08/02 10:39:48;;;;;;;2.60;0.70;;;21.90;99.90;;;;;;4844264;29;20482;-88
2023/08/02 10:42:15;;;;;;;2.23;0.97;;;22.20;99.90;;;;;;4844682;29;20426;-86
2023/08/02 10:44:56;;;;;;;1.10;0.60;;;22.40;99.90;;;;;;4843879;29;20177;-86
2023/08/02 10:47:31;;;;;;;0.70;0.50;;;22.60;99.90;;;;;;4844089;29;20422;-88
2023/08/02 10:49:58;;;;;;;0.60;0.50;;;22.50;99.90;;;;;;4843503;29;20961;-86
2023/08/02 10:52:35;;;;;;;2.40;0.63;;;22.20;99.90;;;;;;4844623;29;20887;-88
2023/08/02 10:55:17;;;;;;;0.70;0.50;;;21.80;99.90;;;;;;4845281;29;20400;-87
2023/08/02 10:57:55;;;;;;;1.13;0.63;;;21.30;99.90;;;;;;4843744;29;20400;-87
2023/08/02 11:00:26;;;;;;;0.60;0.40;;;21.20;99.90;;;;;;4843583;29;20433;-86
2023/08/02 11:02:53;;;;;;;0.70;0.50;;;21.30;99.90;;;;;;4843366;29;20397;-86
2023/08/02 11:05:45;;;;;;;1.23;0.50;;;21.20;99.90;;;;;;4843316;29;20511;-86
2023/08/02 11:08:11;;;;;;;0.83;0.60;;;21.20;99.90;;;;;;4843565;29;20479;-86
2023/08/02 11:11:06;;;;;;;0.83;0.50;;;21.20;99.90;;;;;;4842936;29;20485;-86
2023/08/02 11:13:41;;;;;;;1.00;0.77;;;21.20;99.90;;;;;;4823788;29;20442;-86
2023/08/02 11:16:07;;;;;;;0.90;0.60;;;21.30;99.90;;;;;;4843773;29;20392;-86
2023/08/02 11:18:33;;;;;;;0.80;0.50;;;21.50;99.90;;;;;;4843637;29;20413;-86
2023/08/02 11:21:13;;;;;;;0.90;0.80;;;21.70;99.90;;;;;;4843033;29;20192;-86
2023/08/02 11:23:39;;;;;;;0.83;0.57;;;22.00;99.90;;;;;;4843253;29;20475;-85
2023/08/02 11:26:16;;;;;;;1.83;0.67;;;22.30;99.90;;;;;;4843398;29;20491;-86
2023/08/02 11:28:42;;;;;;;0.80;0.60;;;22.50;99.90;;;;;;4842826;29;20239;-86
2023/08/02 11:31:09;;;;;;;1.77;0.57;;;22.70;99.90;;;;;;4842912;29;20827;-87
2023/08/02 11:33:35;;;;;;;0.70;0.50;;;23.20;99.90;;;;;;4842912;29;20412;-87
2023/08/02 11:36:01;;;;;;;1.00;0.60;;;23.40;99.90;;;;;;4842927;29;20421;-86
2023/08/02 11:38:27;;;;;;;0.70;0.60;;;23.50;99.90;;;;;;4843475;29;20550;-87
2023/08/02 11:40:52;;;;;;;0.60;0.50;;;23.80;99.90;;;;;;4843058;29;20215;-88
2023/08/02 11:43:18;;;;;;;0.70;0.50;;;23.80;99.90;;;;;;4843597;29;20191;-87
2023/08/02 11:45:43;;;;;;;0.70;0.60;;;23.80;99.90;;;;;;4843195;29;20218;-86
2023/08/02 11:48:25;;;;;;;0.93;0.60;;;23.90;99.90;;;;;;4842843;29;20548;-87
2023/08/02 11:50:52;;;;;;;0.80;0.60;;;24.30;99.90;;;;;;4826691;29;20193;-88
2023/08/02 11:53:18;;;;;;;0.70;0.60;;;24.70;99.90;;;;;;4843051;29;20471;-87
2023/08/02 11:55:44;;;;;;;1.03;0.73;;;24.70;99.90;;;;;;4842546;29;20516;-86
2023/08/02 11:58:09;;;;;;;0.70;0.60;;;24.80;99.90;;;;;;4842937;29;20638;-86
2023/08/02 12:00:37;;;;;;;0.80;0.60;;;24.60;99.90;;;;;;4843047;29;20434;-86
2023/08/02 12:03:12;;;;;;;0.70;0.50;;;24.40;99.90;;;;;;4842339;29;20636;-88
2023/08/02 12:05:38;;;;;;;0.73;0.60;;;24.60;99.90;;;;;;4842608;29;20589;-87
2023/08/02 12:08:16;;;;;;;0.70;0.60;;;24.70;99.90;;;;;;4842982;29;20418;-87
2023/08/02 12:10:42;;;;;;;0.70;0.60;;;24.70;99.90;;;;;;4842316;29;20489;-86
2023/08/02 12:13:09;;;;;;;0.80;0.70;;;24.80;99.90;;;;;;4842693;29;20554;-86
2023/08/02 12:15:35;;;;;;;0.80;0.70;;;25.10;99.90;;;;;;4842695;29;20910;-87
2023/08/02 12:18:03;;;;;;;0.70;0.67;;;25.20;99.90;;;;;;4842595;29;20433;-83
2023/08/02 12:20:33;;;;;;;0.90;0.80;;;24.90;99.90;;;;;;4842971;29;20208;-86
2023/08/02 12:22:59;;;;;;;0.70;0.70;;;24.90;99.90;;;;;;4845344;29;20393;-85
2023/08/02 12:25:24;;;;;;;0.70;0.60;;;24.90;99.90;;;;;;4846813;29;20405;-86
2023/08/02 12:28:07;;;;;;;1.10;0.70;;;24.90;99.90;;;;;;4846508;29;20410;-87
2023/08/02 12:30:33;;;;;;;0.80;0.60;;;24.90;99.90;;;;;;4845982;29;20220;-86
2023/08/02 12:32:58;;;;;;;0.80;0.60;;;24.70;99.90;;;;;;4845847;29;20429;-84
2023/08/02 12:35:24;;;;;;;1.57;1.00;;;24.60;99.90;;;;;;4846181;29;20657;-89
2023/08/02 12:37:53;;;;;;;6.10;1.17;;;24.60;99.90;;;;;;4845952;29;20204;-83
2023/08/02 12:40:19;;;;;;;1.20;0.93;;;23.70;99.90;;;;;;4846601;29;20508;-83
2023/08/02 12:42:45;;;;;;;5.30;1.00;;;22.30;99.90;;;;;;4845733;29;20879;-86
2023/08/02 12:45:10;;;;;;;4.30;1.20;;;21.80;99.90;;;;;;4846684;29;20188;-88